sensor_id;sensor_type;location;lat;lon;timestamp;P1;durP1;ratioP1;P2;durP2;ratioP2
46322;SDS011;32044;52.386;13.278;2023-12-07T00:01:32;47.28;;;26.85;;
46322;SDS011;32044;52.386;13.278;2023-12-07T00:04:00;45.15;;;26.42;;
46322;SDS011;32044;52.386;13.278;2023-12-07T00:06:28;42.50;;;25.67;;
46322;SDS011;32044;52.386;13.278;2023-12-07T00:08:56;41.42;;;23.50;;
46322;SDS011;32044;52.386;13.278;2023-12-07T00:11:24;49.65;;;28.33;;
46322;SDS011;32044;52.386;13.278;2023-12-07T00:13:52;55.25;;;28.27;;
46322;SDS011;32044;52.386;13.278;2023-12-07T00:16:21;46.28;;;26.00;;
46322;SDS011;32044;52.386;13.278;2023-12-07T00:18:48;44.90;;;26.13;;
46322;SDS011;32044;52.386;13.278;2023-12-07T00:21:16;45.75;;;26.20;;
46322;SDS011;32044;52.386;13.278;2023-12-07T00:23:43;44.97;;;25.95;;
46322;SDS011;32044;52.386;13.278;2023-12-07T00:26:11;40.35;;;23.55;;
46322;SDS011;32044;52.386;13.278;2023-12-07T00:28:39;41.92;;;24.65;;
46322;SDS011;32044;52.386;13.278;2023-12-07T00:31:06;42.50;;;24.45;;
46322;SDS011;32044;52.386;13.278;2023-12-07T00:33:36;48.08;;;27.27;;
46322;SDS011;32044;52.386;13.278;2023-12-07T00:36:03;47.38;;;26.23;;
46322;SDS011;32044;52.386;13.278;2023-12-07T00:38:31;47.08;;;27.25;;
46322;SDS011;32044;52.386;13.278;2023-12-07T00:40:59;47.83;;;28.10;;
46322;SDS011;32044;52.386;13.278;2023-12-07T00:43:27;47.75;;;26.67;;
46322;SDS011;32044;52.386;13.278;2023-12-07T00:45:54;51.92;;;30.23;;
46322;SDS011;32044;52.386;13.278;2023-12-07T00:48:24;54.83;;;29.75;;
46322;SDS011;32044;52.386;13.278;2023-12-07T00:50:53;50.58;;;28.02;;
46322;SDS011;32044;52.386;13.278;2023-12-07T00:53:20;51.47;;;28.50;;
46322;SDS011;32044;52.386;13.278;2023-12-07T00:55:48;50.25;;;28.98;;
46322;SDS011;32044;52.386;13.278;2023-12-07T00:58:16;48.33;;;28.05;;
46322;SDS011;32044;52.386;13.278;2023-12-07T01:00:44;47.08;;;25.95;;
46322;SDS011;32044;52.386;13.278;2023-12-07T01:03:11;49.30;;;26.25;;
46322;SDS011;32044;52.386;13.278;2023-12-07T01:05:39;43.13;;;25.90;;
46322;SDS011;32044;52.386;13.278;2023-12-07T01:08:08;48.88;;;25.50;;
46322;SDS011;32044;52.386;13.278;2023-12-07T01:10:36;41.70;;;25.13;;
46322;SDS011;32044;52.386;13.278;2023-12-07T01:13:03;44.53;;;25.45;;
46322;SDS011;32044;52.386;13.278;2023-12-07T01:15:32;45.70;;;26.45;;
46322;SDS011;32044;52.386;13.278;2023-12-07T01:17:59;44.67;;;24.50;;
46322;SDS011;32044;52.386;13.278;2023-12-07T01:20:27;44.10;;;25.52;;
46322;SDS011;32044;52.386;13.278;2023-12-07T01:22:55;42.67;;;23.67;;
46322;SDS011;32044;52.386;13.278;2023-12-07T01:25:23;44.65;;;26.13;;
46322;SDS011;32044;52.386;13.278;2023-12-07T01:27:51;44.03;;;25.65;;
46322;SDS011;32044;52.386;13.278;2023-12-07T01:30:19;50.90;;;28.10;;
46322;SDS011;32044;52.386;13.278;2023-12-07T01:32:47;42.05;;;24.75;;
46322;SDS011;32044;52.386;13.278;2023-12-07T01:35:14;46.13;;;26.35;;
46322;SDS011;32044;52.386;13.278;2023-12-07T01:37:42;48.78;;;27.65;;
46322;SDS011;32044;52.386;13.278;2023-12-07T01:40:10;43.80;;;25.50;;
46322;SDS011;32044;52.386;13.278;2023-12-07T01:42:39;46.92;;;28.00;;
46322;SDS011;32044;52.386;13.278;2023-12-07T01:45:07;43.72;;;27.48;;
46322;SDS011;32044;52.386;13.278;2023-12-07T01:47:35;50.70;;;28.92;;
46322;SDS011;32044;52.386;13.278;2023-12-07T01:50:03;49.00;;;28.42;;
46322;SDS011;32044;52.386;13.278;2023-12-07T01:52:32;48.95;;;26.85;;
46322;SDS011;32044;52.386;13.278;2023-12-07T01:55:02;49.60;;;27.48;;
46322;SDS011;32044;52.386;13.278;2023-12-07T01:57:30;47.45;;;27.23;;
46322;SDS011;32044;52.386;13.278;2023-12-07T01:59:59;49.22;;;27.02;;
46322;SDS011;32044;52.386;13.278;2023-12-07T02:02:27;44.03;;;25.05;;
46322;SDS011;32044;52.386;13.278;2023-12-07T02:04:54;48.90;;;26.98;;
46322;SDS011;32044;52.386;13.278;2023-12-07T02:07:22;43.88;;;26.10;;
46322;SDS011;32044;52.386;13.278;2023-12-07T02:09:50;44.42;;;26.25;;
46322;SDS011;32044;52.386;13.278;2023-12-07T02:12:18;45.40;;;26.33;;
46322;SDS011;32044;52.386;13.278;2023-12-07T02:14:46;45.45;;;25.45;;
46322;SDS011;32044;52.386;13.278;2023-12-07T02:17:16;45.92;;;27.17;;
46322;SDS011;32044;52.386;13.278;2023-12-07T02:19:48;52.75;;;28.00;;
46322;SDS011;32044;52.386;13.278;2023-12-07T02:22:21;42.83;;;25.27;;
46322;SDS011;32044;52.386;13.278;2023-12-07T02:24:54;48.03;;;27.58;;
46322;SDS011;32044;52.386;13.278;2023-12-07T02:27:36;42.92;;;25.08;;
46322;SDS011;32044;52.386;13.278;2023-12-07T02:30:05;43.70;;;25.95;;
46322;SDS011;32044;52.386;13.278;2023-12-07T02:32:34;43.20;;;24.83;;
46322;SDS011;32044;52.386;13.278;2023-12-07T02:35:01;44.38;;;26.10;;
46322;SDS011;32044;52.386;13.278;2023-12-07T02:37:32;46.00;;;27.23;;
46322;SDS011;32044;52.386;13.278;2023-12-07T02:40:04;41.42;;;24.80;;
46322;SDS011;32044;52.386;13.278;2023-12-07T02:42:38;41.90;;;24.83;;
46322;SDS011;32044;52.386;13.278;2023-12-07T02:45:07;46.17;;;27.52;;
46322;SDS011;32044;52.386;13.278;2023-12-07T02:47:36;47.65;;;26.02;;
46322;SDS011;32044;52.386;13.278;2023-12-07T02:50:05;43.45;;;26.67;;
46322;SDS011;32044;52.386;13.278;2023-12-07T02:52:33;41.97;;;25.90;;
46322;SDS011;32044;52.386;13.278;2023-12-07T02:55:01;49.35;;;27.17;;
46322;SDS011;32044;52.386;13.278;2023-12-07T02:57:29;45.25;;;25.70;;
46322;SDS011;32044;52.386;13.278;2023-12-07T03:00:01;46.25;;;26.20;;
46322;SDS011;32044;52.386;13.278;2023-12-07T03:02:33;45.50;;;24.25;;
46322;SDS011;32044;52.386;13.278;2023-12-07T03:05:01;48.05;;;28.08;;
46322;SDS011;32044;52.386;13.278;2023-12-07T03:07:28;42.78;;;25.90;;
46322;SDS011;32044;52.386;13.278;2023-12-07T03:09:56;43.28;;;25.67;;
46322;SDS011;32044;52.386;13.278;2023-12-07T03:12:24;47.85;;;26.42;;
46322;SDS011;32044;52.386;13.278;2023-12-07T03:14:52;44.55;;;26.55;;
46322;SDS011;32044;52.386;13.278;2023-12-07T03:17:21;43.97;;;25.13;;
46322;SDS011;32044;52.386;13.278;2023-12-07T03:19:48;51.95;;;28.80;;
46322;SDS011;32044;52.386;13.278;2023-12-07T03:22:16;53.47;;;29.40;;
46322;SDS011;32044;52.386;13.278;2023-12-07T03:24:45;47.70;;;27.05;;
46322;SDS011;32044;52.386;13.278;2023-12-07T03:27:14;50.10;;;27.13;;
46322;SDS011;32044;52.386;13.278;2023-12-07T03:29:41;44.55;;;26.73;;
46322;SDS011;32044;52.386;13.278;2023-12-07T03:32:09;55.60;;;29.55;;
46322;SDS011;32044;52.386;13.278;2023-12-07T03:34:38;49.13;;;27.55;;
46322;SDS011;32044;52.386;13.278;2023-12-07T03:37:06;46.55;;;28.17;;
46322;SDS011;32044;52.386;13.278;2023-12-07T03:39:33;48.60;;;27.08;;
46322;SDS011;32044;52.386;13.278;2023-12-07T03:42:01;49.30;;;26.02;;
46322;SDS011;32044;52.386;13.278;2023-12-07T03:44:29;50.53;;;25.63;;
46322;SDS011;32044;52.386;13.278;2023-12-07T03:46:57;50.25;;;28.17;;
46322;SDS011;32044;52.386;13.278;2023-12-07T03:49:25;46.30;;;26.63;;
46322;SDS011;32044;52.386;13.278;2023-12-07T03:51:53;55.70;;;28.38;;
46322;SDS011;32044;52.386;13.278;2023-12-07T03:54:21;52.00;;;28.08;;
46322;SDS011;32044;52.386;13.278;2023-12-07T03:56:49;57.13;;;29.70;;
46322;SDS011;32044;52.386;13.278;2023-12-07T03:59:16;48.70;;;27.33;;
46322;SDS011;32044;52.386;13.278;2023-12-07T04:01:44;52.22;;;27.25;;
46322;SDS011;32044;52.386;13.278;2023-12-07T04:04:12;49.13;;;27.08;;
46322;SDS011;32044;52.386;13.278;2023-12-07T04:06:40;46.63;;;26.65;;
46322;SDS011;32044;52.386;13.278;2023-12-07T04:09:08;55.10;;;30.00;;
46322;SDS011;32044;52.386;13.278;2023-12-07T04:11:36;50.92;;;27.48;;
46322;SDS011;32044;52.386;13.278;2023-12-07T04:14:04;49.38;;;26.50;;
46322;SDS011;32044;52.386;13.278;2023-12-07T04:16:31;49.38;;;26.05;;
46322;SDS011;32044;52.386;13.278;2023-12-07T04:18:59;50.55;;;26.35;;
46322;SDS011;32044;52.386;13.278;2023-12-07T04:21:27;45.38;;;24.35;;
46322;SDS011;32044;52.386;13.278;2023-12-07T04:23:54;51.97;;;27.88;;
46322;SDS011;32044;52.386;13.278;2023-12-07T04:26:23;45.70;;;25.30;;
46322;SDS011;32044;52.386;13.278;2023-12-07T04:28:51;52.00;;;26.30;;
46322;SDS011;32044;52.386;13.278;2023-12-07T04:31:18;45.97;;;27.27;;
46322;SDS011;32044;52.386;13.278;2023-12-07T04:33:47;46.85;;;25.83;;
46322;SDS011;32044;52.386;13.278;2023-12-07T04:36:15;52.88;;;28.35;;
46322;SDS011;32044;52.386;13.278;2023-12-07T04:38:43;50.13;;;27.88;;
46322;SDS011;32044;52.386;13.278;2023-12-07T04:41:10;52.28;;;28.42;;
46322;SDS011;32044;52.386;13.278;2023-12-07T04:43:39;49.38;;;27.00;;
46322;SDS011;32044;52.386;13.278;2023-12-07T04:46:07;53.47;;;27.48;;
46322;SDS011;32044;52.386;13.278;2023-12-07T04:48:35;55.25;;;29.13;;
46322;SDS011;32044;52.386;13.278;2023-12-07T04:51:03;53.03;;;28.95;;
46322;SDS011;32044;52.386;13.278;2023-12-07T04:53:31;64.22;;;29.33;;
46322;SDS011;32044;52.386;13.278;2023-12-07T04:55:59;54.03;;;29.13;;
46322;SDS011;32044;52.386;13.278;2023-12-07T04:58:26;56.22;;;27.90;;
46322;SDS011;32044;52.386;13.278;2023-12-07T05:00:55;56.58;;;28.33;;
46322;SDS011;32044;52.386;13.278;2023-12-07T05:03:23;55.13;;;30.17;;
46322;SDS011;32044;52.386;13.278;2023-12-07T05:05:51;56.20;;;30.50;;
46322;SDS011;32044;52.386;13.278;2023-12-07T05:08:18;60.22;;;30.98;;
46322;SDS011;32044;52.386;13.278;2023-12-07T05:10:46;57.30;;;30.55;;
46322;SDS011;32044;52.386;13.278;2023-12-07T05:13:14;62.97;;;31.55;;
46322;SDS011;32044;52.386;13.278;2023-12-07T05:15:41;58.55;;;30.80;;
46322;SDS011;32044;52.386;13.278;2023-12-07T05:18:10;56.20;;;29.60;;
46322;SDS011;32044;52.386;13.278;2023-12-07T05:20:38;51.55;;;28.10;;
46322;SDS011;32044;52.386;13.278;2023-12-07T05:23:06;56.38;;;29.40;;
46322;SDS011;32044;52.386;13.278;2023-12-07T05:25:34;55.08;;;28.00;;
46322;SDS011;32044;52.386;13.278;2023-12-07T05:28:01;50.50;;;27.13;;
46322;SDS011;32044;52.386;13.278;2023-12-07T05:30:29;51.53;;;26.70;;
46322;SDS011;32044;52.386;13.278;2023-12-07T05:32:57;52.58;;;27.23;;
46322;SDS011;32044;52.386;13.278;2023-12-07T05:35:26;51.53;;;27.05;;
46322;SDS011;32044;52.386;13.278;2023-12-07T05:37:54;53.03;;;28.30;;
46322;SDS011;32044;52.386;13.278;2023-12-07T05:40:21;52.00;;;28.02;;
46322;SDS011;32044;52.386;13.278;2023-12-07T05:42:49;58.65;;;28.55;;
46322;SDS011;32044;52.386;13.278;2023-12-07T05:45:17;55.17;;;28.98;;
46322;SDS011;32044;52.386;13.278;2023-12-07T05:47:45;53.60;;;29.10;;
46322;SDS011;32044;52.386;13.278;2023-12-07T05:50:13;55.67;;;29.73;;
46322;SDS011;32044;52.386;13.278;2023-12-07T05:52:42;61.08;;;30.15;;
46322;SDS011;32044;52.386;13.278;2023-12-07T05:55:10;60.53;;;29.70;;
46322;SDS011;32044;52.386;13.278;2023-12-07T05:57:38;63.85;;;32.58;;
46322;SDS011;32044;52.386;13.278;2023-12-07T06:00:06;58.55;;;29.70;;
46322;SDS011;32044;52.386;13.278;2023-12-07T06:02:35;50.65;;;28.50;;
46322;SDS011;32044;52.386;13.278;2023-12-07T06:05:03;50.92;;;27.85;;
46322;SDS011;32044;52.386;13.278;2023-12-07T06:07:31;50.78;;;26.90;;
46322;SDS011;32044;52.386;13.278;2023-12-07T06:10:01;52.63;;;28.25;;
46322;SDS011;32044;52.386;13.278;2023-12-07T06:12:31;51.85;;;27.75;;
46322;SDS011;32044;52.386;13.278;2023-12-07T06:14:59;58.05;;;30.40;;
46322;SDS011;32044;52.386;13.278;2023-12-07T06:17:27;54.15;;;28.60;;
46322;SDS011;32044;52.386;13.278;2023-12-07T06:19:54;49.28;;;26.75;;
46322;SDS011;32044;52.386;13.278;2023-12-07T06:22:22;51.22;;;28.00;;
46322;SDS011;32044;52.386;13.278;2023-12-07T06:24:50;57.67;;;29.10;;
46322;SDS011;32044;52.386;13.278;2023-12-07T06:27:19;55.50;;;29.40;;
46322;SDS011;32044;52.386;13.278;2023-12-07T06:29:47;59.08;;;30.67;;
46322;SDS011;32044;52.386;13.278;2023-12-07T06:32:15;59.03;;;29.83;;
46322;SDS011;32044;52.386;13.278;2023-12-07T06:34:43;59.53;;;29.98;;
46322;SDS011;32044;52.386;13.278;2023-12-07T06:37:11;62.92;;;32.15;;
46322;SDS011;32044;52.386;13.278;2023-12-07T06:39:38;59.25;;;30.60;;
46322;SDS011;32044;52.386;13.278;2023-12-07T06:42:06;63.95;;;31.70;;
46322;SDS011;32044;52.386;13.278;2023-12-07T06:44:35;59.22;;;31.52;;
46322;SDS011;32044;52.386;13.278;2023-12-07T06:47:03;61.35;;;31.90;;
46322;SDS011;32044;52.386;13.278;2023-12-07T06:49:31;57.40;;;30.45;;
46322;SDS011;32044;52.386;13.278;2023-12-07T06:52:15;59.08;;;31.58;;
46322;SDS011;32044;52.386;13.278;2023-12-07T06:54:43;62.60;;;31.35;;
46322;SDS011;32044;52.386;13.278;2023-12-07T06:57:11;63.92;;;32.47;;
46322;SDS011;32044;52.386;13.278;2023-12-07T06:59:40;64.28;;;34.08;;
46322;SDS011;32044;52.386;13.278;2023-12-07T07:02:08;67.57;;;34.50;;
46322;SDS011;32044;52.386;13.278;2023-12-07T07:04:36;62.55;;;31.75;;
46322;SDS011;32044;52.386;13.278;2023-12-07T07:07:04;61.88;;;32.58;;
46322;SDS011;32044;52.386;13.278;2023-12-07T07:09:32;58.63;;;29.73;;
46322;SDS011;32044;52.386;13.278;2023-12-07T07:11:59;62.70;;;30.70;;
46322;SDS011;32044;52.386;13.278;2023-12-07T07:14:27;61.28;;;32.28;;
46322;SDS011;32044;52.386;13.278;2023-12-07T07:16:56;58.10;;;30.02;;
46322;SDS011;32044;52.386;13.278;2023-12-07T07:19:24;59.90;;;30.30;;
46322;SDS011;32044;52.386;13.278;2023-12-07T07:21:52;59.38;;;30.58;;
46322;SDS011;32044;52.386;13.278;2023-12-07T07:24:21;65.50;;;31.88;;
46322;SDS011;32044;52.386;13.278;2023-12-07T07:26:51;60.70;;;31.08;;
46322;SDS011;32044;52.386;13.278;2023-12-07T07:29:19;57.38;;;28.30;;
46322;SDS011;32044;52.386;13.278;2023-12-07T07:31:47;69.93;;;33.47;;
46322;SDS011;32044;52.386;13.278;2023-12-07T07:34:16;60.70;;;29.95;;
46322;SDS011;32044;52.386;13.278;2023-12-07T07:36:44;62.10;;;31.70;;
46322;SDS011;32044;52.386;13.278;2023-12-07T07:39:11;69.63;;;33.90;;
46322;SDS011;32044;52.386;13.278;2023-12-07T07:41:40;59.55;;;29.40;;
46322;SDS011;32044;52.386;13.278;2023-12-07T07:44:08;58.90;;;31.17;;
46322;SDS011;32044;52.386;13.278;2023-12-07T07:46:36;61.78;;;31.33;;
46322;SDS011;32044;52.386;13.278;2023-12-07T07:49:04;58.67;;;30.80;;
46322;SDS011;32044;52.386;13.278;2023-12-07T07:51:33;56.83;;;29.88;;
46322;SDS011;32044;52.386;13.278;2023-12-07T07:54:00;64.03;;;31.73;;
46322;SDS011;32044;52.386;13.278;2023-12-07T07:56:28;63.03;;;30.30;;
46322;SDS011;32044;52.386;13.278;2023-12-07T07:58:56;60.85;;;32.45;;
46322;SDS011;32044;52.386;13.278;2023-12-07T08:01:26;62.55;;;32.45;;
46322;SDS011;32044;52.386;13.278;2023-12-07T08:03:54;60.10;;;31.27;;
46322;SDS011;32044;52.386;13.278;2023-12-07T08:06:22;57.40;;;30.10;;
46322;SDS011;32044;52.386;13.278;2023-12-07T08:08:51;61.33;;;30.73;;
46322;SDS011;32044;52.386;13.278;2023-12-07T08:11:19;58.78;;;28.05;;
46322;SDS011;32044;52.386;13.278;2023-12-07T08:13:46;65.57;;;33.25;;
46322;SDS011;32044;52.386;13.278;2023-12-07T08:16:14;62.35;;;33.75;;
46322;SDS011;32044;52.386;13.278;2023-12-07T08:18:42;56.90;;;28.92;;
46322;SDS011;32044;52.386;13.278;2023-12-07T08:21:18;67.43;;;33.45;;
46322;SDS011;32044;52.386;13.278;2023-12-07T08:23:53;62.58;;;31.20;;
46322;SDS011;32044;52.386;13.278;2023-12-07T08:26:21;65.05;;;33.17;;
46322;SDS011;32044;52.386;13.278;2023-12-07T08:28:48;57.65;;;29.30;;
46322;SDS011;32044;52.386;13.278;2023-12-07T08:31:16;56.70;;;29.65;;
46322;SDS011;32044;52.386;13.278;2023-12-07T08:33:44;63.38;;;34.15;;
46322;SDS011;32044;52.386;13.278;2023-12-07T08:36:12;59.60;;;30.40;;
46322;SDS011;32044;52.386;13.278;2023-12-07T08:38:40;54.13;;;28.70;;
46322;SDS011;32044;52.386;13.278;2023-12-07T08:41:09;57.63;;;30.42;;
46322;SDS011;32044;52.386;13.278;2023-12-07T08:43:38;63.33;;;31.70;;
46322;SDS011;32044;52.386;13.278;2023-12-07T08:46:06;55.13;;;28.77;;
46322;SDS011;32044;52.386;13.278;2023-12-07T08:48:35;63.17;;;31.90;;
46322;SDS011;32044;52.386;13.278;2023-12-07T08:51:08;62.92;;;30.98;;
46322;SDS011;32044;52.386;13.278;2023-12-07T08:53:36;62.42;;;30.15;;
46322;SDS011;32044;52.386;13.278;2023-12-07T08:56:05;54.90;;;30.25;;
46322;SDS011;32044;52.386;13.278;2023-12-07T08:58:35;58.47;;;29.05;;
46322;SDS011;32044;52.386;13.278;2023-12-07T09:01:05;60.35;;;30.73;;
46322;SDS011;32044;52.386;13.278;2023-12-07T09:03:38;55.65;;;29.10;;
46322;SDS011;32044;52.386;13.278;2023-12-07T09:06:08;58.63;;;29.92;;
46322;SDS011;32044;52.386;13.278;2023-12-07T09:08:36;58.03;;;31.13;;
46322;SDS011;32044;52.386;13.278;2023-12-07T09:11:04;60.55;;;31.23;;
46322;SDS011;32044;52.386;13.278;2023-12-07T09:13:31;57.92;;;29.08;;
46322;SDS011;32044;52.386;13.278;2023-12-07T09:16:01;62.75;;;31.45;;
46322;SDS011;32044;52.386;13.278;2023-12-07T09:18:28;68.97;;;32.75;;
46322;SDS011;32044;52.386;13.278;2023-12-07T09:20:56;67.55;;;33.30;;
46322;SDS011;32044;52.386;13.278;2023-12-07T09:23:24;65.43;;;32.13;;
46322;SDS011;32044;52.386;13.278;2023-12-07T09:25:52;63.08;;;32.33;;
46322;SDS011;32044;52.386;13.278;2023-12-07T09:28:20;70.05;;;32.22;;
46322;SDS011;32044;52.386;13.278;2023-12-07T09:30:48;63.67;;;31.42;;
46322;SDS011;32044;52.386;13.278;2023-12-07T09:33:17;59.92;;;32.03;;
46322;SDS011;32044;52.386;13.278;2023-12-07T09:35:47;63.20;;;31.70;;
46322;SDS011;32044;52.386;13.278;2023-12-07T09:38:15;62.90;;;31.63;;
46322;SDS011;32044;52.386;13.278;2023-12-07T09:40:43;62.08;;;31.85;;
46322;SDS011;32044;52.386;13.278;2023-12-07T09:43:13;59.70;;;31.00;;
46322;SDS011;32044;52.386;13.278;2023-12-07T09:45:41;60.70;;;30.05;;
46322;SDS011;32044;52.386;13.278;2023-12-07T09:48:08;62.75;;;32.22;;
46322;SDS011;32044;52.386;13.278;2023-12-07T09:50:38;61.63;;;31.40;;
46322;SDS011;32044;52.386;13.278;2023-12-07T09:53:07;59.33;;;30.50;;
46322;SDS011;32044;52.386;13.278;2023-12-07T09:55:35;64.75;;;31.80;;
46322;SDS011;32044;52.386;13.278;2023-12-07T09:58:04;61.83;;;31.05;;
46322;SDS011;32044;52.386;13.278;2023-12-07T10:00:34;63.50;;;31.50;;
46322;SDS011;32044;52.386;13.278;2023-12-07T10:03:03;62.85;;;31.35;;
46322;SDS011;32044;52.386;13.278;2023-12-07T10:05:45;58.78;;;30.77;;
46322;SDS011;32044;52.386;13.278;2023-12-07T10:08:25;61.78;;;32.50;;
46322;SDS011;32044;52.386;13.278;2023-12-07T10:11:01;69.65;;;33.85;;
46322;SDS011;32044;52.386;13.278;2023-12-07T10:13:34;68.45;;;32.58;;
46322;SDS011;32044;52.386;13.278;2023-12-07T10:16:06;64.22;;;33.90;;
46322;SDS011;32044;52.386;13.278;2023-12-07T10:18:37;59.70;;;31.67;;
46322;SDS011;32044;52.386;13.278;2023-12-07T10:21:11;68.35;;;34.28;;
46322;SDS011;32044;52.386;13.278;2023-12-07T10:23:41;68.75;;;33.25;;
46322;SDS011;32044;52.386;13.278;2023-12-07T10:26:13;61.90;;;32.25;;
46322;SDS011;32044;52.386;13.278;2023-12-07T10:31:17;63.70;;;32.08;;
46322;SDS011;32044;52.386;13.278;2023-12-07T10:33:47;71.45;;;35.63;;
46322;SDS011;32044;52.386;13.278;2023-12-07T10:36:16;73.30;;;34.53;;
46322;SDS011;32044;52.386;13.278;2023-12-07T10:38:44;63.75;;;31.98;;
46322;SDS011;32044;52.386;13.278;2023-12-07T10:41:13;66.18;;;35.70;;
46322;SDS011;32044;52.386;13.278;2023-12-07T10:43:42;65.18;;;32.90;;
46322;SDS011;32044;52.386;13.278;2023-12-07T10:46:13;63.85;;;32.80;;
46322;SDS011;32044;52.386;13.278;2023-12-07T10:48:43;68.47;;;35.15;;
46322;SDS011;32044;52.386;13.278;2023-12-07T10:51:12;64.10;;;32.58;;
46322;SDS011;32044;52.386;13.278;2023-12-07T10:53:44;70.28;;;34.35;;
46322;SDS011;32044;52.386;13.278;2023-12-07T10:56:13;65.82;;;32.97;;
46322;SDS011;32044;52.386;13.278;2023-12-07T10:58:43;67.75;;;34.20;;
46322;SDS011;32044;52.386;13.278;2023-12-07T11:01:13;68.43;;;34.22;;
46322;SDS011;32044;52.386;13.278;2023-12-07T11:03:41;65.10;;;33.92;;
46322;SDS011;32044;52.386;13.278;2023-12-07T11:06:11;62.97;;;33.22;;
46322;SDS011;32044;52.386;13.278;2023-12-07T11:08:40;64.50;;;34.42;;
46322;SDS011;32044;52.386;13.278;2023-12-07T11:13:45;62.90;;;32.45;;
46322;SDS011;32044;52.386;13.278;2023-12-07T11:16:16;66.05;;;34.63;;
46322;SDS011;32044;52.386;13.278;2023-12-07T11:18:44;63.35;;;35.45;;
46322;SDS011;32044;52.386;13.278;2023-12-07T11:21:12;63.00;;;31.10;;
46322;SDS011;32044;52.386;13.278;2023-12-07T11:23:40;62.63;;;32.90;;
46322;SDS011;32044;52.386;13.278;2023-12-07T11:26:08;67.65;;;33.38;;
46322;SDS011;32044;52.386;13.278;2023-12-07T11:28:39;60.80;;;32.00;;
46322;SDS011;32044;52.386;13.278;2023-12-07T11:31:07;63.33;;;35.13;;
46322;SDS011;32044;52.386;13.278;2023-12-07T11:33:37;64.43;;;34.97;;
46322;SDS011;32044;52.386;13.278;2023-12-07T11:36:06;68.78;;;35.63;;
46322;SDS011;32044;52.386;13.278;2023-12-07T11:38:36;65.57;;;32.85;;
46322;SDS011;32044;52.386;13.278;2023-12-07T11:41:04;74.75;;;40.78;;
46322;SDS011;32044;52.386;13.278;2023-12-07T11:43:42;71.85;;;36.72;;
46322;SDS011;32044;52.386;13.278;2023-12-07T11:46:13;75.93;;;40.07;;
46322;SDS011;32044;52.386;13.278;2023-12-07T11:48:46;73.40;;;37.15;;
46322;SDS011;32044;52.386;13.278;2023-12-07T11:51:16;70.45;;;36.50;;
46322;SDS011;32044;52.386;13.278;2023-12-07T11:53:44;74.72;;;37.03;;
46322;SDS011;32044;52.386;13.278;2023-12-07T11:56:11;73.50;;;38.25;;
46322;SDS011;32044;52.386;13.278;2023-12-07T11:58:40;75.45;;;36.38;;
46322;SDS011;32044;52.386;13.278;2023-12-07T12:01:09;80.18;;;37.53;;
46322;SDS011;32044;52.386;13.278;2023-12-07T12:03:37;77.18;;;37.53;;
46322;SDS011;32044;52.386;13.278;2023-12-07T12:06:05;79.50;;;40.00;;
46322;SDS011;32044;52.386;13.278;2023-12-07T12:08:38;75.95;;;36.25;;
46322;SDS011;32044;52.386;13.278;2023-12-07T12:11:07;70.45;;;35.92;;
46322;SDS011;32044;52.386;13.278;2023-12-07T12:13:35;79.13;;;39.33;;
46322;SDS011;32044;52.386;13.278;2023-12-07T12:16:04;73.20;;;35.45;;
46322;SDS011;32044;52.386;13.278;2023-12-07T12:18:34;83.32;;;40.05;;
46322;SDS011;32044;52.386;13.278;2023-12-07T12:21:03;83.43;;;38.80;;
46322;SDS011;32044;52.386;13.278;2023-12-07T12:23:31;80.82;;;39.78;;
46322;SDS011;32044;52.386;13.278;2023-12-07T12:25:58;81.28;;;39.53;;
46322;SDS011;32044;52.386;13.278;2023-12-07T12:28:27;76.18;;;38.58;;
46322;SDS011;32044;52.386;13.278;2023-12-07T12:30:55;78.90;;;39.33;;
46322;SDS011;32044;52.386;13.278;2023-12-07T12:33:22;74.47;;;36.67;;
46322;SDS011;32044;52.386;13.278;2023-12-07T12:36:01;81.57;;;39.60;;
46322;SDS011;32044;52.386;13.278;2023-12-07T12:38:30;78.78;;;36.90;;
46322;SDS011;32044;52.386;13.278;2023-12-07T12:41:08;73.00;;;35.83;;
46322;SDS011;32044;52.386;13.278;2023-12-07T12:43:36;77.05;;;37.40;;
46322;SDS011;32044;52.386;13.278;2023-12-07T12:46:03;74.13;;;36.40;;
46322;SDS011;32044;52.386;13.278;2023-12-07T12:48:32;81.43;;;38.47;;
46322;SDS011;32044;52.386;13.278;2023-12-07T12:51:08;77.55;;;37.75;;
46322;SDS011;32044;52.386;13.278;2023-12-07T12:53:40;76.93;;;35.80;;
46322;SDS011;32044;52.386;13.278;2023-12-07T12:56:09;73.78;;;36.17;;
46322;SDS011;32044;52.386;13.278;2023-12-07T12:58:37;75.38;;;35.33;;
46322;SDS011;32044;52.386;13.278;2023-12-07T13:01:05;80.15;;;37.13;;
46322;SDS011;32044;52.386;13.278;2023-12-07T13:03:33;75.18;;;33.90;;
46322;SDS011;32044;52.386;13.278;2023-12-07T13:06:01;75.63;;;34.92;;
46322;SDS011;32044;52.386;13.278;2023-12-07T13:08:31;80.53;;;36.42;;
46322;SDS011;32044;52.386;13.278;2023-12-07T13:10:59;89.78;;;39.58;;
46322;SDS011;32044;52.386;13.278;2023-12-07T13:13:27;82.22;;;36.78;;
46322;SDS011;32044;52.386;13.278;2023-12-07T13:15:56;85.82;;;36.28;;
46322;SDS011;32044;52.386;13.278;2023-12-07T13:18:23;87.97;;;36.80;;
46322;SDS011;32044;52.386;13.278;2023-12-07T13:20:51;85.18;;;36.95;;
46322;SDS011;32044;52.386;13.278;2023-12-07T13:23:22;93.75;;;37.05;;
46322;SDS011;32044;52.386;13.278;2023-12-07T13:25:51;89.47;;;37.47;;
46322;SDS011;32044;52.386;13.278;2023-12-07T13:28:19;86.35;;;36.88;;
46322;SDS011;32044;52.386;13.278;2023-12-07T13:30:46;92.85;;;36.67;;
46322;SDS011;32044;52.386;13.278;2023-12-07T13:33:14;93.32;;;38.30;;
46322;SDS011;32044;52.386;13.278;2023-12-07T13:35:52;92.70;;;37.10;;
46322;SDS011;32044;52.386;13.278;2023-12-07T13:38:22;100.20;;;38.72;;
46322;SDS011;32044;52.386;13.278;2023-12-07T13:40:51;104.90;;;39.45;;
46322;SDS011;32044;52.386;13.278;2023-12-07T13:43:19;105.03;;;36.97;;
46322;SDS011;32044;52.386;13.278;2023-12-07T13:45:50;105.55;;;36.85;;
46322;SDS011;32044;52.386;13.278;2023-12-07T13:48:18;106.15;;;38.28;;
46322;SDS011;32044;52.386;13.278;2023-12-07T13:50:46;97.25;;;35.30;;
46322;SDS011;32044;52.386;13.278;2023-12-07T13:53:13;99.85;;;36.75;;
46322;SDS011;32044;52.386;13.278;2023-12-07T13:55:41;101.68;;;35.50;;
46322;SDS011;32044;52.386;13.278;2023-12-07T13:58:10;98.43;;;34.97;;
46322;SDS011;32044;52.386;13.278;2023-12-07T14:00:40;70.33;;;25.00;;
46322;SDS011;32044;52.386;13.278;2023-12-07T14:05:39;108.82;;;34.33;;
46322;SDS011;32044;52.386;13.278;2023-12-07T14:08:07;83.05;;;30.38;;
46322;SDS011;32044;52.386;13.278;2023-12-07T14:10:35;89.22;;;30.10;;
46322;SDS011;32044;52.386;13.278;2023-12-07T14:13:03;103.15;;;32.83;;
46322;SDS011;32044;52.386;13.278;2023-12-07T14:15:35;91.18;;;31.00;;
46322;SDS011;32044;52.386;13.278;2023-12-07T14:18:10;87.20;;;30.77;;
46322;SDS011;32044;52.386;13.278;2023-12-07T14:20:40;98.15;;;31.45;;
46322;SDS011;32044;52.386;13.278;2023-12-07T14:23:28;89.18;;;29.25;;
46322;SDS011;32044;52.386;13.278;2023-12-07T14:25:56;106.40;;;31.38;;